Time;durP1;ratioP1;P1;durP2;ratioP2;P2;SDS_P1;SDS_P2;PMS_P1;PMS_P2;Temp;Humidity;BMP_temperature;BMP_pressure;BME280_temperature;BME280_humidity;BME280_pressure;Samples;Min_cycle;Max_cycle;Signal;HPM_P1;HPM_P2
2022/06/01 00:00:56;;;;;;;0.97;0.97;;;12.40;88.10;;;;;;5087849;28;20731;-87
2022/06/01 00:03:24;;;;;;;2.13;1.87;;;12.30;87.90;;;;;;5088626;28;20643;-87
2022/06/01 00:05:53;;;;;;;2.00;1.40;;;12.30;89.10;;;;;;5088161;28;20626;-87
2022/06/01 00:08:20;;;;;;;1.50;1.40;;;12.30;89.60;;;;;;5088424;28;20642;-87
2022/06/01 00:10:48;;;;;;;2.23;1.30;;;12.30;88.90;;;;;;5088238;28;20692;-85
2022/06/01 00:13:16;;;;;;;1.53;1.43;;;12.30;87.90;;;;;;5088660;28;20631;-87
2022/06/01 00:15:45;;;;;;;1.83;1.43;;;12.30;87.30;;;;;;5089537;28;20632;-87
2022/06/01 00:18:13;;;;;;;1.73;1.60;;;12.30;87.30;;;;;;5099678;28;20646;-87
2022/06/01 00:20:42;;;;;;;1.93;1.40;;;12.40;88.10;;;;;;5091298;28;20623;-87
2022/06/01 00:23:10;;;;;;;1.00;1.00;;;12.20;88.20;;;;;;5107375;28;20699;-86
2022/06/01 00:25:38;;;;;;;1.40;1.27;;;12.20;88.90;;;;;;5107414;28;20650;-86
2022/06/01 00:28:06;;;;;;;3.70;2.07;;;12.10;89.50;;;;;;5099622;28;20626;-87
2022/06/01 00:30:34;;;;;;;1.27;1.10;;;12.20;88.90;;;;;;5089123;28;21216;-86
2022/06/01 00:33:04;;;;;;;1.27;1.17;;;12.00;89.20;;;;;;5087870;28;20637;-86
2022/06/01 00:35:31;;;;;;;2.70;2.60;;;12.10;89.00;;;;;;5106066;28;20699;-86
2022/06/01 00:37:59;;;;;;;1.67;1.57;;;12.10;90.00;;;;;;5106054;28;20636;-87
2022/06/01 00:40:29;;;;;;;0.80;0.80;;;12.00;90.40;;;;;;5100279;28;20664;-87
2022/06/01 00:42:58;;;;;;;1.83;1.70;;;12.00;90.40;;;;;;5106227;28;20739;-86
2022/06/01 00:45:29;;;;;;;1.33;1.23;;;12.10;90.60;;;;;;5091739;28;20624;-86
2022/06/01 00:47:57;;;;;;;1.20;1.10;;;12.10;90.40;;;;;;5094211;28;20720;-86
2022/06/01 00:50:31;;;;;;;1.70;1.60;;;12.10;90.60;;;;;;5095145;28;20627;-87
2022/06/01 00:53:02;;;;;;;1.40;1.30;;;12.20;90.10;;;;;;5100445;28;20995;-86
2022/06/01 00:55:33;;;;;;;1.87;1.13;;;12.00;90.20;;;;;;5102192;28;20681;-87
2022/06/01 00:58:05;;;;;;;1.67;1.57;;;11.90;90.40;;;;;;5105363;28;20626;-87
2022/06/01 01:00:38;;;;;;;1.73;1.63;;;11.90;90.10;;;;;;5107385;28;20772;-86
2022/06/01 01:03:10;;;;;;;3.43;1.30;;;11.90;90.00;;;;;;5107387;28;21160;-86
2022/06/01 01:05:40;;;;;;;1.70;1.60;;;11.70;90.90;;;;;;5090981;28;20626;-87
2022/06/01 01:08:09;;;;;;;1.40;1.33;;;11.80;90.30;;;;;;5091554;28;20628;-86
2022/06/01 01:10:36;;;;;;;1.23;1.13;;;11.80;90.90;;;;;;5089235;28;20727;-87
2022/06/01 01:13:08;;;;;;;2.37;2.00;;;12.00;89.90;;;;;;5097980;27;21230;-85
2022/06/01 01:15:39;;;;;;;1.53;1.43;;;11.80;90.10;;;;;;5098971;28;21230;-87
2022/06/01 01:18:11;;;;;;;1.27;1.17;;;11.90;90.40;;;;;;5108559;28;20640;-87
2022/06/01 01:20:51;;;;;;;2.77;1.90;;;11.90;90.30;;;;;;5110537;28;21064;-85
2022/06/01 01:23:28;;;;;;;5.30;2.07;;;11.90;90.80;;;;;;5095834;28;20786;-86
2022/06/01 01:25:56;;;;;;;1.53;1.33;;;12.00;90.20;;;;;;5111079;28;20604;-86
2022/06/01 01:28:24;;;;;;;3.77;2.37;;;12.10;90.20;;;;;;5092659;28;20663;-86
2022/06/01 01:30:59;;;;;;;2.43;1.70;;;12.00;90.10;;;;;;5090622;28;20637;-86
2022/06/01 01:33:30;;;;;;;1.70;1.60;;;12.10;90.00;;;;;;5110018;28;20657;-86
2022/06/01 01:36:02;;;;;;;1.60;1.50;;;12.10;90.50;;;;;;5108538;28;20678;-86
2022/06/01 01:38:36;;;;;;;1.60;1.50;;;12.10;89.80;;;;;;5094651;28;20635;-86
2022/06/01 01:41:12;;;;;;;2.83;1.90;;;12.10;90.00;;;;;;5100728;28;20630;-86
2022/06/01 01:43:47;;;;;;;3.20;1.13;;;12.00;89.30;;;;;;5091089;28;20637;-86
2022/06/01 01:46:15;;;;;;;1.70;1.40;;;11.90;89.50;;;;;;5110964;27;20631;-86
2022/06/01 01:48:43;;;;;;;1.50;1.40;;;11.70;89.30;;;;;;5106991;28;20627;-87
2022/06/01 01:51:13;;;;;;;1.00;1.00;;;11.90;90.10;;;;;;5109518;28;20662;-87
2022/06/01 01:53:42;;;;;;;1.33;1.23;;;11.80;90.20;;;;;;5100828;28;20638;-87
2022/06/01 01:59:43;;;;;;;2.20;2.10;;;11.80;91.00;;;;;;5109700;28;20609;-85
2022/06/01 02:02:18;;;;;;;1.80;1.60;;;11.80;90.10;;;;;;5111268;28;20612;-87
2022/06/01 02:07:46;;;;;;;1.00;1.00;;;11.70;90.10;;;;;;5102030;28;20606;-87
2022/06/01 02:12:58;;;;;;;1.60;1.50;;;11.50;90.90;;;;;;5093464;28;20619;-87
2022/06/01 02:15:37;;;;;;;1.70;1.60;;;11.50;91.10;;;;;;5090215;28;20623;-87
2022/06/01 02:18:09;;;;;;;10.10;1.83;;;11.80;91.00;;;;;;5092151;28;21206;-87
2022/06/01 02:20:40;;;;;;;1.50;1.40;;;11.60;91.00;;;;;;5092525;28;21026;-85
2022/06/01 02:23:11;;;;;;;2.43;1.67;;;11.60;90.70;;;;;;5109121;28;20613;-87
2022/06/01 02:25:39;;;;;;;1.97;1.87;;;11.70;90.80;;;;;;5102729;27;20668;-86
2022/06/01 02:28:07;;;;;;;2.90;1.07;;;11.70;91.10;;;;;;5101926;28;20723;-86
2022/06/01 02:30:39;;;;;;;1.30;1.23;;;11.60;91.40;;;;;;5093348;27;20629;-85
2022/06/01 02:33:09;;;;;;;1.70;1.60;;;11.40;91.70;;;;;;5090295;28;21146;-86
2022/06/01 02:35:39;;;;;;;2.93;1.67;;;11.30;91.90;;;;;;5105887;28;20650;-86
2022/06/01 02:38:10;;;;;;;2.53;1.50;;;11.40;92.60;;;;;;5109527;28;21253;-87
2022/06/01 02:40:38;;;;;;;1.60;1.50;;;11.40;92.30;;;;;;5104703;28;21174;-87
2022/06/01 02:43:05;;;;;;;1.73;1.63;;;11.50;92.20;;;;;;5100992;28;20635;-86
2022/06/01 02:45:32;;;;;;;1.67;1.57;;;11.40;92.40;;;;;;5109287;28;20750;-86
2022/06/01 02:48:03;;;;;;;2.07;1.87;;;11.30;92.70;;;;;;5106746;28;20655;-86
2022/06/01 02:50:32;;;;;;;1.70;1.40;;;11.30;92.70;;;;;;5100371;28;20636;-85
2022/06/01 02:53:00;;;;;;;1.63;1.10;;;11.40;92.90;;;;;;5096932;28;20684;-86
2022/06/01 02:55:29;;;;;;;1.97;1.30;;;11.50;92.60;;;;;;5098681;28;20720;-86
2022/06/01 02:57:56;;;;;;;1.30;1.20;;;11.60;92.30;;;;;;5104508;28;20621;-86
2022/06/01 03:00:26;;;;;;;1.27;1.07;;;11.70;92.30;;;;;;5109471;28;20667;-86
2022/06/01 03:02:55;;;;;;;2.90;2.00;;;11.70;92.40;;;;;;5103401;28;20657;-86
2022/06/01 03:05:26;;;;;;;2.37;1.47;;;11.80;92.40;;;;;;5108906;28;21063;-86
2022/06/01 03:07:53;;;;;;;2.30;2.10;;;11.70;92.40;;;;;;5102845;28;20638;-86
2022/06/01 03:10:21;;;;;;;2.80;1.50;;;11.80;92.50;;;;;;5089512;28;20658;-86
2022/06/01 03:12:48;;;;;;;2.53;1.97;;;11.80;92.30;;;;;;5096989;28;20673;-86
2022/06/01 03:15:17;;;;;;;1.13;1.03;;;11.70;92.40;;;;;;5093034;28;21041;-86
2022/06/01 03:17:45;;;;;;;2.43;2.20;;;11.50;92.90;;;;;;5092345;28;21016;-87
2022/06/01 03:20:18;;;;;;;1.77;1.63;;;11.50;92.90;;;;;;5102330;28;20637;-86
2022/06/01 03:22:46;;;;;;;1.33;1.13;;;11.50;93.10;;;;;;5099422;28;20668;-86
2022/06/01 03:25:16;;;;;;;3.07;2.10;;;11.40;93.30;;;;;;5109026;28;20695;-86
2022/06/01 03:27:43;;;;;;;2.00;1.90;;;11.20;93.60;;;;;;5099051;28;20714;-86
2022/06/01 03:30:13;;;;;;;1.87;1.47;;;11.10;94.50;;;;;;5096323;28;20914;-87
2022/06/01 03:32:40;;;;;;;1.50;1.40;;;11.00;93.30;;;;;;5105662;28;20646;-85
2022/06/01 03:35:08;;;;;;;2.07;1.97;;;11.00;93.10;;;;;;5095682;28;20641;-87
2022/06/01 03:37:36;;;;;;;1.53;1.37;;;10.40;92.90;;;;;;5105489;28;20709;-86
2022/06/01 03:40:05;;;;;;;3.90;1.90;;;11.00;93.40;;;;;;5100688;28;20633;-86
2022/06/01 03:42:32;;;;;;;1.40;1.23;;;10.90;93.70;;;;;;5099040;28;20619;-86
2022/06/01 03:47:44;;;;;;;1.40;1.30;;;11.00;93.60;;;;;;5106697;28;21166;-87
2022/06/01 03:50:12;;;;;;;1.10;1.10;;;11.00;93.90;;;;;;5108908;28;21232;-86
2022/06/01 03:52:39;;;;;;;2.20;1.73;;;11.00;94.10;;;;;;5108620;28;20712;-84
2022/06/01 03:55:09;;;;;;;1.50;1.40;;;11.30;94.80;;;;;;5095756;28;20709;-85
2022/06/01 03:57:36;;;;;;;2.40;1.57;;;11.30;94.80;;;;;;5094875;28;21169;-86
2022/06/01 04:00:03;;;;;;;2.03;1.23;;;11.30;94.90;;;;;;5095612;28;20716;-86
2022/06/01 04:02:30;;;;;;;1.33;1.23;;;11.30;95.10;;;;;;5103874;28;20662;-86
2022/06/01 04:04:58;;;;;;;1.80;1.70;;;11.40;95.30;;;;;;5092227;28;20788;-86
2022/06/01 04:07:25;;;;;;;1.97;1.87;;;11.50;95.40;;;;;;5094620;28;20631;-86
2022/06/01 04:09:52;;;;;;;2.00;1.90;;;11.60;95.20;;;;;;5098370;28;20743;-86
2022/06/01 04:12:20;;;;;;;1.77;1.67;;;11.70;95.10;;;;;;5087716;28;20721;-86
2022/06/01 04:14:47;;;;;;;1.63;1.30;;;11.80;95.10;;;;;;5098288;28;20696;-86
2022/06/01 04:17:14;;;;;;;1.37;1.23;;;10.40;93.90;;;;;;5106668;28;20666;-86
2022/06/01 04:19:41;;;;;;;1.87;1.20;;;11.80;94.90;;;;;;5098612;28;20625;-85
2022/06/01 04:22:10;;;;;;;1.77;1.47;;;12.00;94.40;;;;;;5100488;28;20678;-86
2022/06/01 04:24:37;;;;;;;1.90;1.27;;;12.00;94.60;;;;;;5091256;28;21001;-85
2022/06/01 04:27:05;;;;;;;2.00;1.70;;;12.00;93.90;;;;;;5103957;28;20629;-84
2022/06/01 04:29:33;;;;;;;1.50;1.40;;;12.20;94.00;;;;;;5097236;28;20639;-86
2022/06/01 04:32:04;;;;;;;2.90;1.60;;;12.30;94.30;;;;;;5109728;28;20635;-85
2022/06/01 04:34:34;;;;;;;1.60;1.50;;;12.40;94.00;;;;;;5093895;28;20724;-86
2022/06/01 04:37:01;;;;;;;3.47;2.13;;;12.50;93.70;;;;;;5107073;28;20616;-84
2022/06/01 04:39:28;;;;;;;1.47;1.37;;;12.30;94.00;;;;;;5101904;28;20618;-86
2022/06/01 04:41:55;;;;;;;1.30;1.20;;;12.40;94.20;;;;;;5104845;28;20625;-86
2022/06/01 04:44:22;;;;;;;2.10;1.87;;;12.60;94.00;;;;;;5090418;28;20634;-86
2022/06/01 04:46:50;;;;;;;1.83;1.70;;;12.60;94.00;;;;;;5101134;28;20621;-86
2022/06/01 04:49:17;;;;;;;2.03;1.83;;;12.60;93.90;;;;;;5097363;28;20655;-86
2022/06/01 04:51:44;;;;;;;1.77;1.67;;;12.70;93.50;;;;;;5094162;28;20698;-87
2022/06/01 04:54:13;;;;;;;3.50;1.73;;;12.70;93.70;;;;;;5110078;28;20644;-86
2022/06/01 04:56:40;;;;;;;1.50;1.40;;;12.90;93.80;;;;;;5111490;28;20641;-86
2022/06/01 04:59:07;;;;;;;1.70;1.60;;;12.90;93.90;;;;;;5108773;27;20635;-86
2022/06/01 05:01:34;;;;;;;1.50;1.40;;;12.80;93.80;;;;;;5092495;28;20634;-86
2022/06/01 05:04:02;;;;;;;1.50;1.40;;;12.90;93.60;;;;;;5094101;28;20655;-85
2022/06/01 05:06:32;;;;;;;2.23;1.90;;;13.10;93.40;;;;;;5100288;28;21139;-86
2022/06/01 05:08:59;;;;;;;1.77;1.63;;;13.10;93.40;;;;;;5111732;28;20626;-85
2022/06/01 05:11:25;;;;;;;1.20;1.10;;;13.30;93.50;;;;;;5112667;28;20650;-84
2022/06/01 05:13:53;;;;;;;3.80;1.63;;;13.40;93.40;;;;;;5097941;28;20635;-86
2022/06/01 05:16:20;;;;;;;1.27;1.17;;;13.40;93.30;;;;;;5092899;28;20612;-85
2022/06/01 05:18:53;;;;;;;1.80;1.70;;;13.50;93.20;;;;;;5104520;28;20669;-87
2022/06/01 05:21:22;;;;;;;1.80;1.50;;;13.60;92.80;;;;;;5112616;28;20628;-86
2022/06/01 05:23:49;;;;;;;1.30;1.20;;;13.60;92.90;;;;;;5111838;28;20620;-86
2022/06/01 05:26:16;;;;;;;1.73;1.63;;;13.60;93.60;;;;;;5102136;28;20694;-86
2022/06/01 05:28:43;;;;;;;2.20;1.20;;;13.80;92.90;;;;;;5105977;28;20612;-86
2022/06/01 05:31:12;;;;;;;1.23;1.13;;;13.90;92.90;;;;;;5115124;28;20724;-86
2022/06/01 05:33:40;;;;;;;1.50;1.40;;;13.90;93.00;;;;;;5102667;28;20650;-86
2022/06/01 05:36:07;;;;;;;1.33;1.20;;;14.10;92.60;;;;;;5108056;28;20632;-86
2022/06/01 05:38:35;;;;;;;1.40;1.10;;;14.20;92.50;;;;;;5112477;28;21241;-86
2022/06/01 05:41:03;;;;;;;1.30;1.00;;;14.40;92.40;;;;;;5107770;28;20621;-85
2022/06/01 05:43:30;;;;;;;1.33;1.10;;;14.20;92.50;;;;;;5107469;28;20631;-86
2022/06/01 05:45:57;;;;;;;2.20;1.97;;;14.30;92.40;;;;;;5112420;28;20647;-86
2022/06/01 05:48:25;;;;;;;1.80;1.00;;;14.60;92.10;;;;;;5097143;28;20616;-86
2022/06/01 05:50:52;;;;;;;2.17;1.83;;;14.50;92.30;;;;;;5105671;28;20685;-87
2022/06/01 05:53:18;;;;;;;2.03;1.90;;;14.50;92.00;;;;;;5114536;28;20618;-86
2022/06/01 05:55:47;;;;;;;1.43;1.13;;;14.80;92.20;;;;;;5099444;28;20639;-85
2022/06/01 05:58:19;;;;;;;1.67;1.57;;;14.90;91.70;;;;;;5104282;28;20703;-85
2022/06/01 06:00:48;;;;;;;0.87;0.87;;;15.00;91.10;;;;;;5097258;28;20750;-86
2022/06/01 06:03:15;;;;;;;2.00;1.20;;;15.00;91.30;;;;;;5104925;28;20622;-85
2022/06/01 06:08:27;;;;;;;4.07;1.23;;;15.20;91.00;;;;;;5113080;27;20712;-86
2022/06/01 06:10:55;;;;;;;0.87;0.83;;;15.40;90.80;;;;;;5111710;28;20624;-86
2022/06/01 06:13:23;;;;;;;0.77;0.77;;;15.50;90.50;;;;;;5109885;28;20636;-85
2022/06/01 06:15:51;;;;;;;1.30;1.20;;;15.40;90.60;;;;;;5110323;28;20618;-85
2022/06/01 06:18:18;;;;;;;1.77;1.63;;;15.60;90.20;;;;;;5103805;28;21060;-86
2022/06/01 06:20:46;;;;;;;1.83;1.60;;;15.60;90.50;;;;;;5099560;28;20628;-87
2022/06/01 06:23:14;;;;;;;2.63;1.47;;;15.80;90.20;;;;;;5094121;28;20613;-86
2022/06/01 06:25:41;;;;;;;1.20;1.10;;;15.80;90.40;;;;;;5109913;28;20927;-86
2022/06/01 06:28:10;;;;;;;1.50;1.10;;;15.90;89.90;;;;;;5109098;28;20616;-85
2022/06/01 06:30:40;;;;;;;1.00;0.97;;;15.90;90.10;;;;;;5114020;28;20628;-86
2022/06/01 06:33:07;;;;;;;1.83;1.50;;;16.20;90.00;;;;;;5107158;28;20655;-86
2022/06/01 06:35:35;;;;;;;2.93;1.20;;;16.20;89.40;;;;;;5098298;28;20678;-86
2022/06/01 06:38:04;;;;;;;0.80;0.80;;;16.40;88.30;;;;;;5099190;28;20670;-87
2022/06/01 06:40:31;;;;;;;1.30;1.20;;;;;;;;;;5108679;28;20691;-86
2022/06/01 06:42:58;;;;;;;1.43;1.33;;;16.30;88.10;;;;;;5107119;28;20615;-86
2022/06/01 06:45:27;;;;;;;1.27;1.17;;;16.50;88.00;;;;;;5112583;28;20755;-87
2022/06/01 06:47:54;;;;;;;0.97;0.97;;;16.50;88.70;;;;;;5112038;28;21055;-85
2022/06/01 06:50:22;;;;;;;1.70;1.43;;;16.60;88.40;;;;;;5107931;28;20684;-87
2022/06/01 06:52:49;;;;;;;1.40;1.30;;;16.80;88.00;;;;;;5107938;28;20637;-86
2022/06/01 06:55:16;;;;;;;1.23;1.13;;;16.80;87.40;;;;;;5095252;28;20720;-87
2022/06/01 06:57:44;;;;;;;2.53;2.00;;;16.90;87.80;;;;;;5113302;28;20628;-85
2022/06/01 07:00:13;;;;;;;1.10;1.00;;;17.10;87.80;;;;;;5113727;28;20646;-86
2022/06/01 07:02:41;;;;;;;3.80;1.10;;;17.00;87.30;;;;;;5110792;28;20609;-87
2022/06/01 07:05:09;;;;;;;0.90;0.90;;;17.20;87.00;;;;;;5099871;28;20635;-86
2022/06/01 07:07:36;;;;;;;1.40;1.17;;;17.30;85.50;;;;;;5106564;28;20673;-86
2022/06/01 07:10:04;;;;;;;2.30;1.60;;;17.40;87.10;;;;;;5092705;28;20682;-87
2022/06/01 07:12:31;;;;;;;1.50;1.40;;;17.50;85.20;;;;;;5109894;28;20662;-87
2022/06/01 07:14:57;;;;;;;1.83;1.70;;;17.70;84.40;;;;;;5101307;28;20723;-87
2022/06/01 07:17:25;;;;;;;1.57;1.47;;;17.80;83.70;;;;;;5094857;28;20643;-86
2022/06/01 07:19:56;;;;;;;1.50;1.40;;;17.70;82.60;;;;;;5112392;28;20623;-86
2022/06/01 07:22:23;;;;;;;1.40;1.00;;;17.80;84.30;;;;;;5112265;28;20642;-88
2022/06/01 07:24:50;;;;;;;1.40;1.13;;;18.10;83.00;;;;;;5111750;28;20622;-86
2022/06/01 07:27:17;;;;;;;1.77;1.67;;;18.10;82.10;;;;;;5109887;28;20715;-85
2022/06/01 07:29:44;;;;;;;1.93;1.43;;;18.20;80.40;;;;;;5112552;28;21000;-87
2022/06/01 07:32:11;;;;;;;0.87;0.87;;;18.20;81.30;;;;;;5112479;28;20639;-86
2022/06/01 07:34:38;;;;;;;1.97;1.10;;;18.40;80.00;;;;;;5108802;28;20617;-87
2022/06/01 07:45:25;;;;;;;1.00;1.00;;;18.60;78.00;;;;;;5100589;28;21506;-87
2022/06/01 07:47:52;;;;;;;1.53;1.43;;;18.90;75.30;;;;;;5113189;28;20620;-86
2022/06/01 07:50:19;;;;;;;1.03;0.87;;;19.00;73.40;;;;;;5112913;28;20631;-86
2022/06/01 07:52:47;;;;;;;1.37;1.27;;;19.00;73.40;;;;;;5111380;28;20623;-87
2022/06/01 07:55:14;;;;;;;0.83;0.83;;;19.00;73.00;;;;;;5110641;28;20624;-87
2022/06/01 07:57:41;;;;;;;1.50;1.40;;;19.00;73.70;;;;;;5104685;28;20624;-87
2022/06/01 08:00:09;;;;;;;0.93;0.93;;;19.30;73.10;;;;;;5111440;28;20677;-87
2022/06/01 08:02:38;;;;;;;1.20;0.97;;;19.40;71.30;;;;;;5110543;28;20634;-86
2022/06/01 08:05:05;;;;;;;1.40;1.30;;;19.50;71.40;;;;;;5112694;28;21178;-86
2022/06/01 08:07:33;;;;;;;1.67;1.20;;;19.70;70.80;;;;;;5103033;28;20732;-87
2022/06/01 08:10:02;;;;;;;1.20;1.10;;;19.80;71.20;;;;;;5107619;28;21127;-87
2022/06/01 08:15:13;;;;;;;1.17;1.10;;;19.70;65.50;;;;;;5108744;28;20670;-87
2022/06/01 08:17:41;;;;;;;1.10;1.00;;;19.50;60.30;;;;;;5092201;28;20636;-86
2022/06/01 08:20:11;;;;;;;0.80;0.80;;;19.60;61.00;;;;;;5103009;28;21189;-87
2022/06/01 08:22:38;;;;;;;0.93;0.70;;;19.60;59.10;;;;;;5108079;28;20637;-85
2022/06/01 08:25:07;;;;;;;0.80;0.80;;;19.90;60.80;;;;;;5110684;28;20672;-85
2022/06/01 08:27:34;;;;;;;0.90;0.90;;;20.10;62.20;;;;;;5105881;28;20693;-86
2022/06/01 08:30:00;;;;;;;0.90;0.90;;;20.20;59.40;;;;;;5111571;28;20667;-88
2022/06/01 08:32:27;;;;;;;0.93;0.90;;;20.20;55.60;;;;;;5111721;28;20608;-88
2022/06/01 08:34:54;;;;;;;1.33;0.93;;;20.20;55.90;;;;;;5110050;28;20719;-86
2022/06/01 08:37:21;;;;;;;0.80;0.80;;;20.20;55.60;;;;;;5096506;28;21295;-86
2022/06/01 08:39:48;;;;;;;1.30;1.20;;;20.10;55.90;;;;;;5096912;28;20639;-85
2022/06/01 08:42:20;;;;;;;0.90;0.70;;;20.20;56.20;;;;;;5111878;28;20638;-87
2022/06/01 08:44:50;;;;;;;1.17;1.17;;;20.40;57.70;;;;;;5092770;28;20621;-85
2022/06/01 08:47:23;;;;;;;1.20;1.10;;;20.50;57.60;;;;;;5100663;28;20641;-86
2022/06/01 08:49:50;;;;;;;0.80;0.80;;;20.60;58.10;;;;;;5108825;28;20611;-86
2022/06/01 08:52:26;;;;;;;0.83;0.77;;;20.70;56.70;;;;;;5108204;28;20636;-86
2022/06/01 08:54:52;;;;;;;1.20;1.10;;;20.90;58.20;;;;;;5111248;28;20643;-87
2022/06/01 08:57:28;;;;;;;0.80;0.70;;;20.80;54.10;;;;;;5094355;28;20637;-86
2022/06/01 09:00:02;;;;;;;0.90;0.90;;;20.90;53.60;;;;;;5109927;28;20623;-87
2022/06/01 09:02:42;;;;;;;0.93;0.90;;;21.00;54.00;;;;;;5110426;28;20628;-88
2022/06/01 09:05:14;;;;;;;1.17;1.00;;;21.20;53.70;;;;;;5110543;28;20658;-86
2022/06/01 09:07:48;;;;;;;0.80;0.80;;;21.50;54.00;;;;;;5104845;28;20663;-87
2022/06/01 09:10:45;;;;;;;0.90;0.90;;;21.70;52.70;;;;;;5109649;28;20722;-87
2022/06/01 09:13:19;;;;;;;1.10;1.03;;;21.80;53.50;;;;;;5104732;28;20620;-86
2022/06/01 09:15:51;;;;;;;0.73;0.73;;;22.00;54.10;;;;;;5099011;28;20627;-87
2022/06/01 09:18:22;;;;;;;0.73;0.73;;;22.10;53.00;;;;;;5100932;28;20697;-87
2022/06/01 09:23:33;;;;;;;0.80;0.80;;;21.50;51.70;;;;;;5106632;28;20623;-88
2022/06/01 09:26:00;;;;;;;0.73;0.70;;;21.30;53.80;;;;;;5092148;28;20773;-87
2022/06/01 09:28:30;;;;;;;0.70;0.67;;;21.30;51.10;;;;;;5097820;28;20627;-88
2022/06/01 09:30:59;;;;;;;1.63;1.10;;;21.30;51.70;;;;;;5109360;28;21095;-87
2022/06/01 09:33:28;;;;;;;0.90;0.80;;;21.40;50.90;;;;;;5101575;28;20623;-87
2022/06/01 09:36:02;;;;;;;0.80;0.70;;;21.20;51.00;;;;;;5113244;28;20665;-87
2022/06/01 09:38:40;;;;;;;0.60;0.60;;;21.10;50.40;;;;;;5110290;28;20655;-87
2022/06/01 09:41:10;;;;;;;0.90;0.90;;;20.90;51.20;;;;;;5110375;28;20720;-86
2022/06/01 09:43:40;;;;;;;1.33;1.00;;;20.70;51.00;;;;;;5113559;28;20627;-86
2022/06/01 09:46:08;;;;;;;0.60;0.57;;;20.70;50.70;;;;;;5113384;28;21275;-87
2022/06/01 09:48:38;;;;;;;0.60;0.60;;;20.70;51.70;;;;;;5110069;28;20651;-86
2022/06/01 09:51:17;;;;;;;0.83;0.83;;;20.80;50.50;;;;;;5112431;28;20624;-87
2022/06/01 09:53:46;;;;;;;0.70;0.70;;;20.80;50.00;;;;;;5114214;28;20619;-87
2022/06/01 09:56:19;;;;;;;0.80;0.80;;;20.50;50.70;;;;;;5113245;28;20619;-86
2022/06/01 10:07:21;;;;;;;0.63;0.63;;;20.40;49.90;;;;;;5085724;28;20666;-86
2022/06/01 10:09:52;;;;;;;1.40;1.00;;;20.30;50.40;;;;;;5105619;28;20636;-87
2022/06/01 10:12:32;;;;;;;0.37;0.37;;;20.20;50.10;;;;;;5097017;28;21513;-87
2022/06/01 10:15:03;;;;;;;0.67;0.67;;;22.40;51.90;;;;;;5093577;28;20659;-87
2022/06/01 10:17:34;;;;;;;0.80;0.73;;;20.50;51.20;;;;;;5106257;28;20640;-87
2022/06/01 10:20:21;;;;;;;1.00;0.70;;;20.50;50.00;;;;;;5108768;28;20719;-86
2022/06/01 10:22:56;;;;;;;1.00;0.80;;;20.60;49.90;;;;;;5113651;28;21153;-85
2022/06/01 10:25:30;;;;;;;0.77;0.77;;;20.80;50.20;;;;;;5113339;28;20666;-86
2022/06/01 10:28:01;;;;;;;0.70;0.70;;;20.80;48.20;;;;;;5095372;28;20672;-87
2022/06/01 10:30:34;;;;;;;0.80;0.80;;;20.80;49.60;;;;;;5099789;28;20842;-87
2022/06/01 10:33:09;;;;;;;0.70;0.70;;;20.80;49.00;;;;;;5105800;28;20806;-88
2022/06/01 10:35:40;;;;;;;1.27;1.17;;;21.00;49.10;;;;;;5094532;28;20623;-88
2022/06/01 10:38:17;;;;;;;0.90;0.90;;;21.30;49.70;;;;;;5112107;28;20722;-87
2022/06/01 10:40:48;;;;;;;0.87;0.73;;;21.60;49.30;;;;;;5111882;28;20680;-86
2022/06/01 10:43:29;;;;;;;0.67;0.67;;;21.70;50.20;;;;;;5099029;28;20852;-85
2022/06/01 10:46:05;;;;;;;1.23;0.70;;;22.00;48.60;;;;;;5099465;28;20620;-86
2022/06/01 10:48:38;;;;;;;0.50;0.50;;;22.20;48.80;;;;;;5092281;28;20700;-87
2022/06/01 10:51:12;;;;;;;0.57;0.57;;;22.30;46.40;;;;;;5107113;28;20636;-86
2022/06/01 10:53:48;;;;;;;0.50;0.50;;;22.70;48.80;;;;;;5111922;28;20695;-88
2022/06/01 10:56:16;;;;;;;5.00;1.20;;;23.00;47.10;;;;;;5110573;28;20658;-89
2022/06/01 10:58:43;;;;;;;0.60;0.60;;;22.90;47.90;;;;;;5111922;28;20628;-87
2022/06/01 11:01:19;;;;;;;0.90;0.80;;;22.70;46.50;;;;;;5107838;28;20649;-87
2022/06/01 11:04:13;;;;;;;0.83;0.80;;;22.90;47.30;;;;;;5092093;28;20655;-87
2022/06/01 11:06:58;;;;;;;0.80;0.80;;;22.70;45.90;;;;;;5107656;28;21237;-86
2022/06/01 11:09:38;;;;;;;0.93;0.90;;;22.90;46.70;;;;;;5110874;28;20711;-86
2022/06/01 11:12:25;;;;;;;0.70;0.60;;;23.00;47.50;;;;;;5088799;28;21193;-88
2022/06/01 11:15:06;;;;;;;0.77;0.73;;;23.40;48.60;;;;;;5091457;28;20637;-88
2022/06/01 11:17:39;;;;;;;0.63;0.60;;;24.00;48.50;;;;;;5091642;28;20681;-88
2022/06/01 11:20:41;;;;;;;0.80;0.80;;;24.40;45.10;;;;;;5107437;28;20632;-86
2022/06/01 11:23:19;;;;;;;0.60;0.60;;;24.60;43.40;;;;;;5109743;28;20635;-88
2022/06/01 11:25:59;;;;;;;0.60;0.60;;;25.00;44.20;;;;;;5103818;27;20633;-88
2022/06/01 11:28:49;;;;;;;1.23;1.00;;;25.40;43.80;;;;;;5097526;28;21097;-87
2022/06/01 11:31:21;;;;;;;0.63;0.63;;;25.50;42.50;;;;;;5090996;28;20711;-89
2022/06/01 11:33:57;;;;;;;2.83;0.77;;;25.90;42.90;;;;;;5109655;28;20628;-87
2022/06/01 11:36:36;;;;;;;1.10;1.00;;;25.10;44.00;;;;;;5108770;28;20627;-87
2022/06/01 11:39:12;;;;;;;0.40;0.40;;;24.60;41.40;;;;;;5109875;28;20996;-87
2022/06/01 11:41:49;;;;;;;0.50;0.50;;;24.00;42.20;;;;;;5110294;28;20941;-89
2022/06/01 11:44:20;;;;;;;1.33;1.23;;;23.80;42.60;;;;;;5108011;28;21264;-87
2022/06/01 11:46:55;;;;;;;1.07;0.97;;;23.60;43.40;;;;;;5096143;28;20672;-86
2022/06/01 11:49:35;;;;;;;1.10;0.97;;;23.20;42.80;;;;;;5110899;28;20623;-87
2022/06/01 11:52:31;;;;;;;0.93;0.93;;;23.30;43.60;;;;;;5110481;28;20627;-88
2022/06/01 11:55:13;;;;;;;1.47;1.03;;;23.00;43.70;;;;;;5109300;28;20638;-88
2022/06/01 11:57:45;;;;;;;0.80;0.70;;;23.00;44.50;;;;;;5099716;28;20668;-88
2022/06/01 12:00:19;;;;;;;0.80;0.70;;;23.40;43.80;;;;;;5104630;28;20690;-88
2022/06/01 12:02:50;;;;;;;0.67;0.67;;;23.80;43.90;;;;;;5091536;28;20648;-88
2022/06/01 12:05:30;;;;;;;0.90;0.90;;;24.10;44.10;;;;;;5108720;28;20668;-87
2022/06/01 12:08:02;;;;;;;0.60;0.60;;;24.30;44.80;;;;;;5108459;28;20695;-89
2022/06/01 12:10:31;;;;;;;1.00;1.00;;;25.80;43.70;;;;;;5110615;28;20636;-88
2022/06/01 12:13:05;;;;;;;0.97;0.97;;;26.90;42.10;;;;;;5107360;28;20877;-88
2022/06/01 12:15:41;;;;;;;0.87;0.70;;;27.00;41.90;;;;;;5090395;28;20630;-86
2022/06/01 12:18:29;;;;;;;1.20;0.93;;;26.70;41.30;;;;;;5089979;28;20632;-87
2022/06/01 12:21:20;;;;;;;1.00;0.90;;;27.80;39.40;;;;;;5104824;28;20669;-86
2022/06/01 12:29:54;;;;;;;0.70;0.70;;;30.10;37.70;;;;;;5068356;28;20632;-87
2022/06/01 12:32:21;;;;;;;0.67;0.67;;;28.70;38.10;;;;;;5088697;28;20641;-86
2022/06/01 12:35:09;;;;;;;0.70;0.70;;;27.40;38.40;;;;;;5096015;28;20682;-87
2022/06/01 12:37:46;;;;;;;0.80;0.80;;;26.60;41.10;;;;;;5106264;28;20619;-87
2022/06/01 12:40:17;;;;;;;0.90;0.90;;;25.60;40.10;;;;;;5097759;28;21205;-87
2022/06/01 12:42:52;;;;;;;2.10;1.00;;;25.30;41.60;;;;;;5109114;28;20619;-86
2022/06/01 12:45:22;;;;;;;0.73;0.73;;;25.00;41.60;;;;;;5106206;28;21204;-85
2022/06/01 12:48:01;;;;;;;1.10;1.00;;;24.80;43.70;;;;;;5092616;28;20668;-87
2022/06/01 12:50:31;;;;;;;1.80;0.87;;;25.20;44.10;;;;;;5102352;28;20654;-88
2022/06/01 12:53:17;;;;;;;1.43;1.17;;;25.00;41.50;;;;;;5109623;28;20655;-87
2022/06/01 12:55:45;;;;;;;0.93;0.80;;;24.80;41.80;;;;;;5102930;28;20633;-88
2022/06/01 12:58:18;;;;;;;1.13;1.03;;;24.30;41.40;;;;;;5098127;28;20726;-87
2022/06/01 13:00:50;;;;;;;1.00;1.00;;;23.90;43.00;;;;;;5105996;28;20688;-88
2022/06/01 13:03:21;;;;;;;1.00;1.00;;;23.70;42.50;;;;;;5108122;28;20631;-86
2022/06/01 13:05:52;;;;;;;0.83;0.83;;;24.70;44.00;;;;;;5106029;28;20652;-89
2022/06/01 13:08:23;;;;;;;1.60;1.40;;;25.90;43.60;;;;;;5113454;28;20660;-89
2022/06/01 13:10:50;;;;;;;0.90;0.90;;;27.30;42.30;;;;;;5110755;28;20664;-88
2022/06/01 13:13:23;;;;;;;1.10;1.10;;;28.70;42.10;;;;;;5092909;28;20640;-85
2022/06/01 13:15:57;;;;;;;0.90;0.90;;;29.20;39.20;;;;;;5110716;28;20719;-86
2022/06/01 13:18:29;;;;;;;0.80;0.80;;;30.10;38.40;;;;;;5093922;28;20640;-87
2022/06/01 13:21:01;;;;;;;0.80;0.80;;;30.40;41.30;;;;;;5110020;28;20700;-87
2022/06/01 13:23:33;;;;;;;1.00;1.00;;;30.80;38.90;;;;;;5112424;28;21234;-88
2022/06/01 13:26:04;;;;;;;1.63;0.93;;;30.30;39.20;;;;;;5110727;28;20673;-89
2022/06/01 13:28:31;;;;;;;0.90;0.90;;;29.40;38.60;;;;;;5111452;28;20690;-87
2022/06/01 13:31:00;;;;;;;0.90;0.90;;;28.10;40.30;;;;;;5111411;28;20631;-88
2022/06/01 13:33:36;;;;;;;1.10;1.00;;;27.00;40.90;;;;;;5112176;28;21072;-87
2022/06/01 13:36:05;;;;;;;1.20;1.10;;;26.40;42.40;;;;;;5095945;28;20616;-87
2022/06/01 13:38:40;;;;;;;1.10;1.03;;;25.80;43.20;;;;;;5096509;28;20659;-86
2022/06/01 13:41:16;;;;;;;1.10;1.10;;;26.40;43.80;;;;;;5101942;28;21288;-86
2022/06/01 13:43:46;;;;;;;1.30;1.20;;;27.00;42.90;;;;;;5112350;28;20615;-88
2022/06/01 13:46:15;;;;;;;1.53;1.43;;;25.70;42.50;;;;;;5108672;28;20627;-88
2022/06/01 13:48:47;;;;;;;1.57;1.20;;;25.30;44.10;;;;;;5091552;28;20759;-88